Rochester, MN

5:11 AM CDT on October 01, 2014 (GMT -0500)
Honeckland, Elton Hills | Change Station
CLOSE
Current Station
Personal Weather Station
Location: Rochester, MN
Elevation: 1037 ft
Nearby Weather Stations

Elev 1037 ft 44.05 °N, 92.48 °W | Updated 6 minutes ago

Overcast
Overcast
48.2 °F
Feels Like 47 °F
N
3.7
Wind Variable Wind from West

Today
High -- | Low -- °F
--% Chance of Precip.
Yesterday
High -- | Low -- °F
Precip. -- in
7:07 AM 6:50 PM
Waxing Crescent, 46% visible
Pressure 29.89 in
Visibility 7.0 miles
Clouds Scattered Clouds 1100 ft
Overcast 4900 ft
Windchill 47 °F
Dew Point 47 °F
Humidity 97%
Rainfall 0.00 in
Snow Depth Not available.
UV 0 out of 12
Pollen 2.70 out of 12
Air Quality Not available.
Flu Activity Not available.
METAR K9MN 010954Z AUTO 12012G17KT 7SM SCT011 OVC049 09/06 A2989 RMK AO1 P0002 T00890062

More Conditions Fewer Conditions

Pressure 29.89 in
Visibility 7.0 miles
Clouds Scattered Clouds 1100 ft
Overcast 4900 ft
Windchill 47 °F
Dew Point 47 °F
Humidity 97%
Rainfall 0.00 in
Snow Depth Not available.
UV 0 out of 12
Pollen 2.70 out of 12
Air Quality Not available.
Flu Activity Not available.
METAR K9MN 010954Z AUTO 12012G17KT 7SM SCT011 OVC049 09/06 A2989 RMK AO1 P0002 T00890062

More Conditions Fewer Conditions

10-Day Weather Forecast

Almanac

Astronomy

Oct. 01, 2014 Rise Set
Actual Time 7:07 AM CDT 6:50 PM CDT
Civil Twilight 6:38 AM CDT 7:19 PM CDT
Nautical Twilight 6:05 AM CDT 7:52 PM CDT
Astronomical Twilight 5:31 AM CDT 8:26 PM CDT
Moon 2:17 PM CDT No Moon Set
Length of Visible Light 12h 40m
Length of Day
11h 43m
Tomorrow will be 3m 0s shorter.
Waxing Crescent, 46% of the Moon is Illuminated
Today
Waxing Crescent
Oct 1
First Quarter
Oct 8
Full
Oct 15
Last Quarter
Oct 23
New

Today's Extremes

State Highs State Lows

Community

WunderPhotos

Upload Photos

1,757,905 photos uploaded!

WunderBlogs® & News

Nearby

Snow Depth

Station Depth Elevation
No new snow has been reported.

Earthquake Activity

City Distance Mag. Time & Date
No recent earthquake activity has been reported nearby.
Minimum magnitude displayed is 2.5.

Coastal Water Temperatures

Place Temperature
No Stations Reporting

Nearby Weather Stations